Uniontown, PA (15401)

9:03 AM EST on February 13, 2016 (GMT -0500)
Nick's Weather | | Change Station
CLOSE
Current Station
Personal Weather Station
Location: Uniontown, PA
Elevation: 1060 ft
Nearby Weather Stations
Active Advisory: Wind Chill Advisory Active Notice: Public Information Statement

Elev 1060 ft 39.90 °N, 79.74 °W | Updated 3 seconds ago

Partly Cloudy
Partly Cloudy
8.9 °F
Feels Like 9 °F
N
1.0
Wind Variable Wind from NNE
Gusts 11.0 mph

Today
High -- | Low -- °F
--% Chance of Precip.
Yesterday
High -- | Low -- °F
Precip. -- in
Pressure 30.36 in
Visibility 10.0 miles
Clouds Mostly Cloudy 4100 ft
Windchill 9 °F
Dew Point -3 °F
Humidity 58%
Rainfall 0.00 in
Snow Depth Not available.
7:14 AM 5:52 PM
Waxing Crescent, 31% visible
METAR KMGW 131253Z 30005KT 10SM BKN041 M13/M21 A3029 RMK AO2 SLP281 T11331211
Pressure 30.36 in
Visibility 10.0 miles
Clouds Mostly Cloudy 4100 ft
Windchill 9 °F
Dew Point -3 °F
Humidity 58%
Rainfall 0.00 in
Snow Depth Not available.
7:14 AM 5:52 PM
Waxing Crescent, 31% visible
METAR KMGW 131253Z 30005KT 10SM BKN041 M13/M21 A3029 RMK AO2 SLP281 T11331211

10-Day Weather Forecast

Almanac

Astronomy

Feb. 13, 2016 Rise Set
Actual Time
Civil Twilight
Nautical Twilight
Astronomical Twilight
Moon
Length of Visible Light
Length of Day
Tomorrow will be .
, % of the Moon is Illuminated

Today's Extremes

State Highs State Lows

Community

WunderPhotos

Upload Photos

1,892,556 photos uploaded!

WunderBlog® & News

Nearby

Air Quality

  Air Quality AQ Index Pollutant
Not available.

Snow Depth

Station Depth Elevation

Earthquake Activity

City Distance Mag. Time & Date
Minimum magnitude displayed is 2.5.

Coastal Water Temperatures

Place Temperature

Stations

Nearby Weather Stations

Station Location Temp. Windchill Dew Point Humidity Wind Precip. Elev Updated Type
                   

Watches & Warnings

Wind Chill Advisory
Issued: 4:56 AM EST Feb. 13, 2016 – National Weather Service

... Wind Chill Advisory remains in effect until 9 am EST Sunday...

* wind chill... as low as 15 below due to temperatures 4 below to
12 above zero... and winds west 10 to 20 mph with gusts up to
25 mph.

* Impacts... frost bite and hypothermia are possible if
precautions are not taken.